createdAt,value
2023-01-26T00:01:21.821Z,-0.88
2023-01-26T00:03:51.270Z,-0.84
2023-01-26T00:06:20.000Z,-0.87
2023-01-26T00:08:52.346Z,-0.91
2023-01-26T00:11:24.365Z,-0.88
2023-01-26T00:13:51.270Z,-0.96
2023-01-26T00:16:18.069Z,-0.96
2023-01-26T00:18:44.885Z,-0.77
2023-01-26T00:21:19.543Z,-0.79
2023-01-26T00:23:49.330Z,-0.87
2023-01-26T00:26:19.824Z,-0.84
2023-01-26T00:28:46.846Z,-0.80
2023-01-26T00:31:18.510Z,-0.84
2023-01-26T00:33:46.012Z,-0.84
2023-01-26T00:36:16.357Z,-0.88
2023-01-26T00:38:43.265Z,-0.87
2023-01-26T00:41:30.417Z,-0.90
2023-01-26T00:43:57.231Z,-0.87
2023-01-26T00:46:26.001Z,-0.87
2023-01-26T00:48:52.664Z,-0.91
2023-01-26T00:51:19.449Z,-0.86
2023-01-26T00:53:46.213Z,-0.90
2023-01-26T00:56:14.793Z,-0.90
2023-01-26T00:58:42.363Z,-0.88
2023-01-26T01:01:09.170Z,-0.91
2023-01-26T01:03:35.878Z,-0.91
2023-01-26T01:06:02.576Z,-0.90
2023-01-26T01:08:29.181Z,-0.90
2023-01-26T01:11:07.530Z,-0.96
2023-01-26T01:13:34.204Z,-0.88
2023-01-26T01:16:00.957Z,-0.92
2023-01-26T01:18:27.579Z,-0.96
2023-01-26T01:20:54.201Z,-0.88
2023-01-26T01:23:20.893Z,-0.87
2023-01-26T01:25:47.547Z,-0.95
2023-01-26T01:28:14.207Z,-0.96
2023-01-26T01:30:41.432Z,-1.04
2023-01-26T01:33:08.189Z,-1.05
2023-01-26T01:35:35.941Z,-1.03
2023-01-26T01:38:02.781Z,-1.09
2023-01-26T01:40:29.416Z,-1.12
2023-01-26T01:42:56.157Z,-1.12
2023-01-26T01:45:42.948Z,-1.11
2023-01-26T01:48:47.894Z,-1.15
2023-01-26T01:51:29.816Z,-1.17
2023-01-26T01:54:00.175Z,-1.20
2023-01-26T01:56:29.759Z,-1.12
2023-01-26T01:58:59.393Z,-1.11
2023-01-26T02:01:26.436Z,-1.10
2023-01-26T02:03:59.405Z,-1.06
2023-01-26T02:06:35.195Z,-1.12
2023-01-26T02:09:04.499Z,-1.04
2023-01-26T02:11:40.650Z,-1.05
2023-01-26T02:14:10.555Z,-1.07
2023-01-26T02:16:40.001Z,-1.08
2023-01-26T02:19:26.045Z,-1.02
2023-01-26T02:21:57.262Z,-1.04
2023-01-26T02:24:33.434Z,-1.00
2023-01-26T02:27:00.159Z,-1.04
2023-01-26T02:29:27.029Z,-1.11
2023-01-26T02:31:54.825Z,-1.10
2023-01-26T02:34:21.603Z,-1.08
2023-01-26T02:36:57.749Z,-1.05
2023-01-26T02:39:24.310Z,-1.11
2023-01-26T02:42:11.176Z,-1.05
2023-01-26T02:44:39.772Z,-1.06
2023-01-26T02:47:18.466Z,-1.06
2023-01-26T02:49:50.507Z,-1.04
2023-01-26T02:52:20.520Z,-1.04
2023-01-26T02:55:06.147Z,-1.05
2023-01-26T02:57:35.278Z,-1.07
2023-01-26T03:00:04.041Z,-1.18
2023-01-26T03:02:30.745Z,-1.22
2023-01-26T03:04:59.954Z,-1.15
2023-01-26T03:07:29.735Z,-1.13
2023-01-26T03:09:58.848Z,-1.13
2023-01-26T03:12:26.316Z,-1.15
2023-01-26T03:15:17.659Z,-1.15
2023-01-26T03:17:44.711Z,-1.14
2023-01-26T03:20:32.480Z,-1.19
2023-01-26T03:23:17.850Z,-1.18
2023-01-26T03:26:03.413Z,-1.17
2023-01-26T03:28:35.264Z,-1.22
2023-01-26T03:31:06.780Z,-1.17
2023-01-26T03:33:33.387Z,-1.18
2023-01-26T03:36:00.144Z,-1.21
2023-01-26T03:38:29.214Z,-1.16
2023-01-26T03:41:18.033Z,-1.18
2023-01-26T03:44:03.427Z,-1.15
2023-01-26T03:46:48.669Z,-1.13
2023-01-26T03:49:33.680Z,-1.11
2023-01-26T03:52:21.236Z,-1.17
2023-01-26T03:55:11.347Z,-1.16
2023-01-26T03:57:38.047Z,-1.23
2023-01-26T04:00:06.837Z,-1.23
2023-01-26T04:02:51.733Z,-1.23
2023-01-26T04:05:37.073Z,-1.29
2023-01-26T04:08:43.396Z,-1.31
2023-01-26T04:11:10.555Z,-1.40
2023-01-26T04:13:55.549Z,-1.46
2023-01-26T04:16:40.867Z,-1.50
2023-01-26T04:19:26.611Z,-1.55
2023-01-26T04:21:53.510Z,-1.62
2023-01-26T04:24:22.586Z,-1.70
2023-01-26T04:26:49.411Z,-1.77
2023-01-26T04:29:18.120Z,-1.87
2023-01-26T04:31:47.485Z,-1.90
2023-01-26T04:34:18.524Z,-1.98
2023-01-26T04:36:45.714Z,-2.07
2023-01-26T04:39:16.959Z,-2.01
2023-01-26T04:41:43.574Z,-2.06
2023-01-26T04:44:10.364Z,-2.10
2023-01-26T04:46:37.096Z,-2.18
2023-01-26T04:49:03.949Z,-2.21
2023-01-26T04:51:30.541Z,-2.18
2023-01-26T04:54:02.470Z,-2.29
2023-01-26T04:56:34.562Z,-2.32
2023-01-26T04:59:04.455Z,-2.39
2023-01-26T05:01:31.136Z,-2.39
2023-01-26T05:04:01.970Z,-2.50
2023-01-26T05:06:31.608Z,-2.56
2023-01-26T05:08:58.707Z,-2.63
2023-01-26T05:11:27.031Z,-2.62
2023-01-26T05:13:53.585Z,-2.73
2023-01-26T05:16:24.899Z,-2.76
2023-01-26T05:18:54.049Z,-2.78
2023-01-26T05:21:22.527Z,-2.84
2023-01-26T05:23:49.248Z,-2.88
2023-01-26T05:26:19.245Z,-2.87
2023-01-26T05:28:48.258Z,-2.88
2023-01-26T05:31:17.255Z,-2.92
2023-01-26T05:33:44.069Z,-2.92
2023-01-26T05:36:12.799Z,-2.92
2023-01-26T05:38:39.446Z,-2.88
2023-01-26T05:41:10.491Z,-2.87
2023-01-26T05:43:37.169Z,-2.92
2023-01-26T05:46:05.974Z,-2.95
2023-01-26T05:48:32.678Z,-2.94
2023-01-26T05:50:59.389Z,-2.90
2023-01-26T05:53:26.032Z,-2.88
2023-01-26T05:55:55.829Z,-2.85
2023-01-26T05:58:22.422Z,-2.88
2023-01-26T06:00:49.069Z,-2.98
2023-01-26T06:03:20.293Z,-3.00
2023-01-26T06:05:52.964Z,-2.98
2023-01-26T06:08:19.613Z,-2.99
2023-01-26T06:10:46.186Z,-2.96
2023-01-26T06:13:12.743Z,-2.99
2023-01-26T06:15:39.427Z,-3.00
2023-01-26T06:18:06.039Z,-2.95
2023-01-26T06:20:35.517Z,-2.93
2023-01-26T06:23:02.187Z,-2.93
2023-01-26T06:25:28.822Z,-2.87
2023-01-26T06:27:58.903Z,-2.85
2023-01-26T06:30:25.760Z,-2.85
2023-01-26T06:32:52.717Z,-2.86
2023-01-26T06:35:19.420Z,-2.83
2023-01-26T06:37:50.749Z,-2.88
2023-01-26T06:40:17.680Z,-2.94
2023-01-26T06:42:48.678Z,-2.91
2023-01-26T06:45:18.300Z,-2.84
2023-01-26T06:47:51.446Z,-2.84
2023-01-26T06:50:25.525Z,-2.99
2023-01-26T06:52:56.474Z,-2.97
2023-01-26T06:55:34.614Z,-2.80
2023-01-26T06:58:01.275Z,-2.81
2023-01-26T07:00:27.956Z,-2.76
2023-01-26T07:02:54.754Z,-2.66
2023-01-26T07:05:22.190Z,-2.65
2023-01-26T07:07:49.171Z,-2.65
2023-01-26T07:10:16.019Z,-2.59
2023-01-26T07:12:46.555Z,-2.59
2023-01-26T07:15:13.581Z,-2.55
2023-01-26T07:17:40.608Z,-2.49
2023-01-26T07:20:08.511Z,-2.47
2023-01-26T07:22:38.296Z,-2.30
2023-01-26T07:25:05.118Z,-2.24
2023-01-26T07:27:31.749Z,-2.24
2023-01-26T07:29:58.352Z,-2.21
2023-01-26T07:32:24.956Z,-2.25
2023-01-26T07:34:51.919Z,-2.20
2023-01-26T07:37:18.550Z,-2.29
2023-01-26T07:39:49.159Z,-2.23
2023-01-26T07:42:15.799Z,-2.18
2023-01-26T07:44:42.461Z,-2.16
2023-01-26T07:47:09.153Z,-2.09
2023-01-26T07:49:35.739Z,-2.14
2023-01-26T07:52:04.625Z,-1.98
2023-01-26T07:54:33.634Z,-1.92
2023-01-26T07:57:00.561Z,-1.97
2023-01-26T07:59:33.165Z,-1.92
2023-01-26T08:02:02.217Z,-1.82
2023-01-26T08:04:29.524Z,-1.79
2023-01-26T08:06:56.198Z,-1.79
2023-01-26T08:09:22.909Z,-1.73
2023-01-26T08:11:49.570Z,-1.69
2023-01-26T08:14:16.299Z,-1.68
2023-01-26T08:16:43.029Z,-1.68
2023-01-26T08:19:12.407Z,-1.61
2023-01-26T08:21:52.108Z,-1.50
2023-01-26T08:24:21.064Z,-1.40
2023-01-26T08:26:47.741Z,-1.32
2023-01-26T08:29:17.307Z,-1.31
2023-01-26T08:31:49.140Z,-1.27
2023-01-26T08:34:15.815Z,-1.22
2023-01-26T08:36:42.502Z,-1.21
2023-01-26T08:39:15.566Z,-1.07
2023-01-26T08:41:42.361Z,-0.99
2023-01-26T08:44:10.920Z,-0.97
2023-01-26T08:46:37.568Z,-0.98
2023-01-26T08:49:04.340Z,-1.01
2023-01-26T08:51:50.261Z,-0.98
2023-01-26T08:54:20.564Z,-0.97
2023-01-26T08:56:47.824Z,-0.88
2023-01-26T08:59:15.129Z,-0.73
2023-01-26T09:01:42.179Z,-0.65
2023-01-26T09:04:09.767Z,-0.63
2023-01-26T09:06:36.424Z,-0.54
2023-01-26T09:09:03.030Z,-0.51
2023-01-26T09:11:29.729Z,-0.49
2023-01-26T09:13:56.886Z,-0.41
2023-01-26T09:16:27.421Z,-0.29
2023-01-26T09:18:54.455Z,-0.27
2023-01-26T09:21:21.508Z,-0.33
2023-01-26T09:23:48.172Z,-0.37
2023-01-26T09:26:17.914Z,-0.27
2023-01-26T09:31:25.301Z,-0.22
2023-01-26T09:33:52.320Z,-0.04
2023-01-26T09:36:19.288Z,0.00
2023-01-26T09:38:46.099Z,0.02
2023-01-26T09:41:32.517Z,0.10
2023-01-26T09:44:05.820Z,0.15
2023-01-26T09:47:01.727Z,0.15
2023-01-26T09:49:43.865Z,0.23
2023-01-26T09:52:27.849Z,0.32
2023-01-26T09:54:57.997Z,0.44
2023-01-26T09:57:30.779Z,0.51
2023-01-26T10:00:02.966Z,0.52
2023-01-26T10:02:41.911Z,0.55
2023-01-26T10:05:19.634Z,0.54
2023-01-26T10:07:46.530Z,0.74
2023-01-26T10:10:24.351Z,0.63
2023-01-26T10:12:51.852Z,0.64
2023-01-26T10:15:21.388Z,0.80
2023-01-26T10:17:48.684Z,0.82
2023-01-26T10:20:15.353Z,0.93
2023-01-26T10:22:54.878Z,0.94
2023-01-26T10:25:35.851Z,0.99
2023-01-26T10:28:13.540Z,1.08
2023-01-26T10:30:42.930Z,1.07
2023-01-26T10:33:26.358Z,1.09
2023-01-26T10:35:53.891Z,1.12
2023-01-26T10:38:27.696Z,1.11
2023-01-26T10:40:55.618Z,1.09
2023-01-26T10:43:24.552Z,1.25
2023-01-26T10:45:51.274Z,1.28
2023-01-26T10:48:21.090Z,1.18
2023-01-26T10:50:48.364Z,1.27
2023-01-26T10:53:19.197Z,1.38
2023-01-26T10:56:13.580Z,1.37
2023-01-26T10:58:57.414Z,1.37
2023-01-26T11:01:27.724Z,1.50
2023-01-26T11:04:00.222Z,1.47
2023-01-26T11:06:30.909Z,1.51
2023-01-26T11:09:15.664Z,1.54
2023-01-26T11:11:42.413Z,1.56
2023-01-26T11:14:17.541Z,1.63
2023-01-26T11:16:59.486Z,1.79
2023-01-26T11:19:35.259Z,1.80
2023-01-26T11:22:23.184Z,1.84
2023-01-26T11:24:49.806Z,2.01
2023-01-26T11:27:27.505Z,2.02
2023-01-26T11:30:06.482Z,2.00
2023-01-26T11:33:12.142Z,1.93
2023-01-26T11:36:11.920Z,2.03
2023-01-26T11:38:41.768Z,2.22
2023-01-26T11:41:25.215Z,2.23
2023-01-26T11:44:07.871Z,2.22
2023-01-26T11:46:56.222Z,2.22
2023-01-26T11:49:33.365Z,2.24
2023-01-26T11:52:23.060Z,2.31
2023-01-26T11:55:04.767Z,2.22
2023-01-26T11:58:01.658Z,2.28
2023-01-26T12:00:43.119Z,2.32
2023-01-26T12:03:23.366Z,2.37
2023-01-26T12:05:58.973Z,2.45
2023-01-26T12:08:48.763Z,2.51
2023-01-26T12:11:46.087Z,2.45
2023-01-26T12:14:26.446Z,2.44
2023-01-26T12:17:17.585Z,2.57
2023-01-26T12:20:04.448Z,2.61
2023-01-26T12:22:38.829Z,2.58
2023-01-26T12:25:22.786Z,2.50
2023-01-26T12:27:58.681Z,2.51
2023-01-26T12:30:42.984Z,2.52
2023-01-26T12:33:12.821Z,2.56
2023-01-26T12:35:51.505Z,2.55
2023-01-26T12:38:59.431Z,2.52
2023-01-26T12:41:59.408Z,2.50
2023-01-26T12:44:50.948Z,2.35
2023-01-26T12:47:31.213Z,2.33
2023-01-26T12:50:13.993Z,2.35
2023-01-26T12:53:05.714Z,2.33
2023-01-26T12:56:00.108Z,2.42
2023-01-26T12:58:26.790Z,2.49
2023-01-26T13:01:02.447Z,2.59
2023-01-26T13:03:33.891Z,2.60
2023-01-26T13:06:17.303Z,2.65
2023-01-26T13:09:00.730Z,2.70
2023-01-26T13:11:39.292Z,2.64
2023-01-26T13:14:27.509Z,2.60
2023-01-26T13:16:54.656Z,2.66
2023-01-26T13:19:39.976Z,2.73
2023-01-26T13:22:26.556Z,2.73
2023-01-26T13:24:56.273Z,2.75
2023-01-26T13:27:29.847Z,2.81
2023-01-26T13:29:56.676Z,2.82
2023-01-26T13:32:23.283Z,2.78
2023-01-26T13:34:54.879Z,2.82
2023-01-26T13:37:35.067Z,2.85
2023-01-26T13:40:31.073Z,2.88
2023-01-26T13:43:31.137Z,2.81
2023-01-26T13:46:12.647Z,2.84
2023-01-26T13:48:52.809Z,2.77
2023-01-26T13:51:28.346Z,2.77
2023-01-26T13:54:06.908Z,2.80
2023-01-26T13:56:38.979Z,2.90
2023-01-26T13:59:15.698Z,2.87
2023-01-26T14:01:55.244Z,2.87
2023-01-26T14:04:29.734Z,2.85
2023-01-26T14:07:03.167Z,2.72
2023-01-26T14:09:32.743Z,2.64
2023-01-26T14:12:05.475Z,2.63
2023-01-26T14:14:35.378Z,2.63
2023-01-26T14:17:07.633Z,2.61
2023-01-26T14:19:41.308Z,2.59
2023-01-26T14:22:12.849Z,2.54
2023-01-26T14:24:43.236Z,2.49
2023-01-26T14:27:29.474Z,2.49
2023-01-26T14:29:56.408Z,2.47
2023-01-26T14:32:25.532Z,2.42
2023-01-26T14:34:54.894Z,2.46
2023-01-26T14:37:21.997Z,2.41
2023-01-26T14:39:49.028Z,2.32
2023-01-26T14:42:19.053Z,2.24
2023-01-26T14:44:46.378Z,2.19
2023-01-26T14:47:18.711Z,2.22
2023-01-26T14:49:56.601Z,2.14
2023-01-26T14:52:30.770Z,2.00
2023-01-26T14:55:00.076Z,1.97
2023-01-26T14:57:28.682Z,1.88
2023-01-26T14:59:58.553Z,1.77
2023-01-26T15:02:43.374Z,1.68
2023-01-26T15:05:14.800Z,1.57
2023-01-26T15:07:47.430Z,1.54
2023-01-26T15:10:54.465Z,1.51
2023-01-26T15:13:33.733Z,1.40
2023-01-26T15:16:38.556Z,1.31
2023-01-26T15:19:24.181Z,1.27
2023-01-26T15:22:05.828Z,1.30
2023-01-26T15:24:52.449Z,1.27
2023-01-26T15:27:24.174Z,1.25
2023-01-26T15:30:05.638Z,1.21
2023-01-26T15:33:00.426Z,1.17
2023-01-26T15:35:59.358Z,1.12
2023-01-26T15:38:32.794Z,1.07
2023-01-26T15:41:02.638Z,1.06
2023-01-26T15:43:40.956Z,1.00
2023-01-26T15:46:10.289Z,1.01
2023-01-26T15:48:37.279Z,1.00
2023-01-26T15:51:10.840Z,0.97
2023-01-26T15:53:37.462Z,0.98
2023-01-26T15:56:04.239Z,0.90
2023-01-26T15:58:34.821Z,0.89
2023-01-26T16:01:01.734Z,0.91
2023-01-26T16:03:28.956Z,0.92
2023-01-26T16:05:55.613Z,0.92
2023-01-26T16:08:22.280Z,0.90
2023-01-26T16:10:49.091Z,0.88
2023-01-26T16:13:22.293Z,0.88
2023-01-26T16:15:53.510Z,0.86
2023-01-26T16:18:20.991Z,0.91
2023-01-26T16:20:49.482Z,0.88
2023-01-26T16:23:28.866Z,0.87
2023-01-26T16:25:59.002Z,0.84
2023-01-26T16:28:25.669Z,0.86
2023-01-26T16:30:52.395Z,0.84
2023-01-26T16:33:24.653Z,0.82
2023-01-26T16:35:51.573Z,0.85
2023-01-26T16:38:20.486Z,0.73
2023-01-26T16:40:49.380Z,0.68
2023-01-26T16:43:19.183Z,0.76
2023-01-26T16:45:45.871Z,0.77
2023-01-26T16:48:17.641Z,0.73
2023-01-26T16:50:45.105Z,0.70
2023-01-26T16:53:27.574Z,0.69
2023-01-26T16:55:55.442Z,0.69
2023-01-26T16:58:26.586Z,0.72
2023-01-26T17:00:54.707Z,0.68
2023-01-26T17:03:21.701Z,0.70
2023-01-26T17:05:50.470Z,0.67
2023-01-26T17:08:18.799Z,0.70
2023-01-26T17:10:59.869Z,0.66
2023-01-26T17:13:28.595Z,0.73
2023-01-26T17:15:56.795Z,0.70
2023-01-26T17:18:23.818Z,0.64
2023-01-26T17:20:50.534Z,0.66
2023-01-26T17:23:17.197Z,0.64
2023-01-26T17:25:43.818Z,0.63
2023-01-26T17:28:10.514Z,0.61
2023-01-26T17:30:40.635Z,0.58
2023-01-26T17:33:07.370Z,0.55
2023-01-26T17:35:36.715Z,0.56
2023-01-26T17:38:03.470Z,0.55
2023-01-26T17:40:30.088Z,0.47
2023-01-26T17:42:56.695Z,0.45
2023-01-26T17:45:23.504Z,0.39
2023-01-26T17:47:50.733Z,0.42
2023-01-26T17:50:17.739Z,0.39
2023-01-26T17:52:44.460Z,0.39
2023-01-26T17:55:14.234Z,0.30
2023-01-26T17:57:41.082Z,0.25
2023-01-26T18:00:09.659Z,0.26
2023-01-26T18:02:45.210Z,0.23
2023-01-26T18:05:15.148Z,0.19
2023-01-26T18:07:41.791Z,0.12
2023-01-26T18:10:09.223Z,0.17
2023-01-26T18:12:37.725Z,0.13
2023-01-26T18:15:04.874Z,0.14
2023-01-26T18:20:29.616Z,0.08
2023-01-26T18:23:11.922Z,0.06
2023-01-26T18:25:51.263Z,0.10
2023-01-26T18:28:18.299Z,0.10
2023-01-26T18:31:05.192Z,0.08
2023-01-26T18:33:42.281Z,-0.04
2023-01-26T18:36:25.255Z,-0.01
2023-01-26T18:39:18.658Z,-0.01
2023-01-26T18:41:45.422Z,0.04
2023-01-26T18:44:12.220Z,0.03
2023-01-26T18:46:39.240Z,0.07
2023-01-26T18:49:06.035Z,0.09
2023-01-26T18:51:35.425Z,0.14
2023-01-26T18:54:04.283Z,0.06
2023-01-26T18:56:40.517Z,0.00
2023-01-26T18:59:58.231Z,0.05
2023-01-26T19:03:00.708Z,0.15
2023-01-26T19:05:32.035Z,0.15
2023-01-26T19:08:28.540Z,0.21
2023-01-26T19:11:22.288Z,0.23
2023-01-26T19:14:05.400Z,0.23
2023-01-26T19:16:48.505Z,0.16
2023-01-26T19:19:16.369Z,0.20
2023-01-26T19:22:04.267Z,0.18
2023-01-26T19:27:24.082Z,0.12
2023-01-26T19:29:56.971Z,0.13
2023-01-26T19:32:31.945Z,0.19
2023-01-26T19:35:02.271Z,0.09
2023-01-26T19:37:56.949Z,0.16
2023-01-26T19:48:08.051Z,-0.08
2023-01-26T19:50:38.053Z,-0.12
2023-01-26T19:53:30.451Z,-0.15
2023-01-26T19:56:05.748Z,-0.20
2023-01-26T19:58:32.503Z,-0.23
2023-01-26T20:01:07.810Z,-0.20
2023-01-26T20:03:35.382Z,-0.22
2023-01-26T20:06:03.125Z,-0.22
2023-01-26T20:08:30.476Z,-0.25
2023-01-26T20:11:05.142Z,-0.26
2023-01-26T20:13:33.240Z,-0.29
2023-01-26T20:16:00.546Z,-0.26
2023-01-26T20:18:27.563Z,-0.31
2023-01-26T20:20:55.883Z,-0.31
2023-01-26T20:23:23.814Z,-0.28
2023-01-26T20:25:51.803Z,-0.31
2023-01-26T20:28:19.186Z,-0.24
2023-01-26T20:30:46.256Z,-0.25
2023-01-26T20:33:13.141Z,-0.19
2023-01-26T20:35:40.599Z,-0.13
2023-01-26T20:38:07.217Z,-0.19
2023-01-26T20:40:33.814Z,-0.23
2023-01-26T20:43:00.707Z,-0.22
2023-01-26T20:45:27.311Z,-0.20
2023-01-26T20:47:56.844Z,-0.22
2023-01-26T20:50:23.454Z,-0.18
2023-01-26T20:52:50.168Z,-0.13
2023-01-26T20:55:17.113Z,-0.14
2023-01-26T20:57:43.813Z,-0.04
2023-01-26T21:00:11.417Z,-0.15
2023-01-26T21:02:38.414Z,-0.25
2023-01-26T21:05:07.217Z,-0.35
2023-01-26T21:07:33.964Z,-0.32
2023-01-26T21:10:00.653Z,-0.28
2023-01-26T21:12:28.687Z,-0.27
2023-01-26T21:14:57.702Z,-0.16
2023-01-26T21:17:24.545Z,-0.12
2023-01-26T21:19:51.285Z,-0.08
2023-01-26T21:22:18.013Z,-0.06
2023-01-26T21:24:44.863Z,0.02
2023-01-26T21:27:12.474Z,0.11
2023-01-26T21:29:42.062Z,0.14
2023-01-26T21:32:08.815Z,0.19
2023-01-26T21:34:35.461Z,0.25
2023-01-26T21:37:02.204Z,0.26
2023-01-26T21:39:28.918Z,0.20
2023-01-26T21:41:55.693Z,0.20
2023-01-26T21:44:22.417Z,0.21
2023-01-26T21:46:52.268Z,0.25
2023-01-26T21:49:19.449Z,0.25
2023-01-26T21:52:04.940Z,0.21
2023-01-26T21:54:32.215Z,0.26
2023-01-26T21:56:59.562Z,0.23
2023-01-26T21:59:26.382Z,0.20
2023-01-26T22:01:55.584Z,0.18
2023-01-26T22:04:28.295Z,0.23
2023-01-26T22:06:55.872Z,0.25
2023-01-26T22:09:23.925Z,0.30
2023-01-26T22:11:51.898Z,0.30
2023-01-26T22:14:23.549Z,0.26
2023-01-26T22:16:50.263Z,0.18
2023-01-26T22:19:17.332Z,0.11
2023-01-26T22:21:44.922Z,0.09
2023-01-26T22:24:13.613Z,0.03
2023-01-26T22:26:40.647Z,0.12
2023-01-26T22:29:07.718Z,0.20
2023-01-26T22:31:34.577Z,0.25
2023-01-26T22:34:04.305Z,0.26
2023-01-26T22:36:31.091Z,0.32
2023-01-26T22:38:59.422Z,0.52
2023-01-26T22:41:28.449Z,0.66
2023-01-26T22:43:57.781Z,0.70
2023-01-26T22:46:26.457Z,0.91
2023-01-26T22:48:55.100Z,0.99
2023-01-26T22:51:25.188Z,0.92
2023-01-26T22:53:55.960Z,0.99
2023-01-26T22:56:23.553Z,0.94
2023-01-26T22:58:58.427Z,0.91
2023-01-26T23:01:27.237Z,0.90
2023-01-26T23:03:55.144Z,1.00
2023-01-26T23:06:22.346Z,0.99
2023-01-26T23:08:49.164Z,1.04
2023-01-26T23:11:20.354Z,1.01
2023-01-26T23:13:48.641Z,1.00
2023-01-26T23:16:15.602Z,1.04
2023-01-26T23:18:42.841Z,1.00
2023-01-26T23:21:10.529Z,0.90
2023-01-26T23:23:39.105Z,0.85
2023-01-26T23:26:06.245Z,0.79
2023-01-26T23:28:36.567Z,0.73
2023-01-26T23:31:03.663Z,0.67
2023-01-26T23:33:32.419Z,0.68
2023-01-26T23:35:59.491Z,0.62
2023-01-26T23:38:28.189Z,0.63
2023-01-26T23:40:55.490Z,0.68
2023-01-26T23:43:23.073Z,0.89
2023-01-26T23:45:50.914Z,1.09
2023-01-26T23:48:18.185Z,1.09
2023-01-26T23:50:45.302Z,1.14
2023-01-26T23:53:12.690Z,1.16
2023-01-26T23:55:44.085Z,1.17
2023-01-26T23:58:12.225Z,1.15
